Time;durP1;ratioP1;P1;durP2;ratioP2;P2;SDS_P1;SDS_P2;PMS_P1;PMS_P2;Temp;Humidity;BMP_temperature;BMP_pressure;BME280_temperature;BME280_humidity;BME280_pressure;Samples;Min_cycle;Max_cycle;Signal;HPM_P1;HPM_P2
2022/06/05 00:00:21;;;;;;;11.97;10.87;;;20.10;99.90;;;;;;6194835;23;20453;-88
2022/06/05 00:03:02;;;;;;;13.73;11.53;;;20.20;99.90;;;;;;6212716;23;20399;-87
2022/06/05 00:05:35;;;;;;;11.37;10.20;;;20.20;99.90;;;;;;6209277;23;20391;-86
2022/06/05 00:08:13;;;;;;;13.57;12.17;;;20.10;99.90;;;;;;6213291;23;20422;-87
2022/06/05 00:10:43;;;;;;;11.50;10.40;;;20.00;99.90;;;;;;6213293;23;20414;-87
2022/06/05 00:13:18;;;;;;;11.93;10.63;;;20.10;99.90;;;;;;6204508;23;20400;-87
2022/06/05 00:15:45;;;;;;;13.20;11.90;;;20.00;99.90;;;;;;6191883;23;20410;-89
2022/06/05 00:18:12;;;;;;;11.73;10.53;;;20.00;99.90;;;;;;6191989;23;20478;-88
2022/06/05 00:20:42;;;;;;;12.87;11.57;;;20.00;99.90;;;;;;6192173;23;20918;-87
2022/06/05 00:23:09;;;;;;;11.37;10.27;;;20.00;99.90;;;;;;6190725;23;20426;-88
2022/06/05 00:25:45;;;;;;;12.30;11.10;;;20.00;99.90;;;;;;6191389;23;20438;-88
2022/06/05 00:28:35;;;;;;;11.90;10.77;;;20.10;99.90;;;;;;6198793;23;20401;-87
2022/06/05 00:31:13;;;;;;;11.63;10.43;;;20.10;99.90;;;;;;6212007;23;20431;-85
2022/06/05 00:33:41;;;;;;;12.87;10.60;;;20.00;99.90;;;;;;6213368;23;20393;-87
2022/06/05 00:36:24;;;;;;;11.03;9.93;;;20.00;99.90;;;;;;6201533;23;20407;-87
2022/06/05 00:39:01;;;;;;;13.20;11.90;;;20.00;99.90;;;;;;6192345;23;20415;-88
2022/06/05 00:41:42;;;;;;;11.33;10.00;;;20.00;99.90;;;;;;6194086;23;20483;-89
2022/06/05 00:44:12;;;;;;;12.33;11.13;;;19.90;99.90;;;;;;6193691;23;20395;-88
2022/06/05 00:46:42;;;;;;;11.33;10.30;;;19.90;99.90;;;;;;6196668;23;20410;-87
2022/06/05 00:49:10;;;;;;;11.20;10.03;;;19.80;99.90;;;;;;6197559;23;20391;-89
2022/06/05 00:51:39;;;;;;;15.73;11.93;;;19.80;99.90;;;;;;6194522;23;20401;-88
2022/06/05 00:54:09;;;;;;;11.57;10.40;;;19.90;99.90;;;;;;6196546;23;20497;-87
2022/06/05 00:56:39;;;;;;;11.73;10.63;;;19.80;99.90;;;;;;6196704;23;20402;-88
2022/06/05 00:59:06;;;;;;;12.27;11.10;;;19.80;99.90;;;;;;6196675;23;20426;-87
2022/06/05 01:01:34;;;;;;;12.13;10.47;;;19.80;99.90;;;;;;6196093;23;20425;-88
2022/06/05 01:04:02;;;;;;;11.80;10.70;;;19.80;99.90;;;;;;6202428;23;20399;-87
2022/06/05 01:06:30;;;;;;;12.60;11.30;;;19.80;99.90;;;;;;6194685;23;20736;-88
2022/06/05 01:08:58;;;;;;;11.60;10.40;;;19.80;99.90;;;;;;6193691;23;20450;-88
2022/06/05 01:11:39;;;;;;;10.90;9.87;;;19.70;99.90;;;;;;6197982;23;20423;-88
2022/06/05 01:14:14;;;;;;;11.37;10.17;;;19.80;99.90;;;;;;6195460;23;20379;-88
2022/06/05 01:16:51;;;;;;;11.80;10.60;;;19.80;99.90;;;;;;6193401;23;20433;-88
2022/06/05 01:19:36;;;;;;;11.60;10.30;;;19.80;99.90;;;;;;6208563;23;20413;-85
2022/06/05 01:22:25;;;;;;;13.13;11.00;;;19.70;99.90;;;;;;6211775;23;20395;-88
2022/06/05 01:25:13;;;;;;;12.87;10.30;;;19.70;99.90;;;;;;6201562;23;20449;-88
2022/06/05 01:27:45;;;;;;;12.40;11.13;;;19.70;99.90;;;;;;6209335;23;20478;-88
2022/06/05 01:30:16;;;;;;;11.17;10.00;;;19.70;99.90;;;;;;6193099;23;20489;-89
2022/06/05 01:32:47;;;;;;;12.20;11.00;;;19.70;99.90;;;;;;6191635;23;20405;-89
2022/06/05 01:35:19;;;;;;;12.00;10.17;;;19.80;99.90;;;;;;6192296;23;20410;-88
2022/06/05 01:37:49;;;;;;;13.00;10.40;;;19.80;99.90;;;;;;6192939;23;20374;-89
2022/06/05 01:40:21;;;;;;;13.33;12.03;;;19.70;99.90;;;;;;6192585;23;20937;-87
2022/06/05 01:42:55;;;;;;;12.73;11.47;;;19.70;99.90;;;;;;6193167;23;20398;-88
2022/06/05 01:45:25;;;;;;;13.03;11.63;;;19.60;99.90;;;;;;6192613;23;20398;-88
2022/06/05 01:47:55;;;;;;;12.53;10.83;;;19.60;99.90;;;;;;6195837;23;20395;-88
2022/06/05 01:50:25;;;;;;;12.30;11.03;;;19.60;99.90;;;;;;6209057;23;20438;-88
2022/06/05 01:52:59;;;;;;;11.50;10.40;;;19.60;99.90;;;;;;6211276;23;20394;-89
2022/06/05 01:55:33;;;;;;;13.20;11.87;;;19.70;99.90;;;;;;6192544;23;20874;-88
2022/06/05 01:58:05;;;;;;;12.93;11.63;;;19.70;99.90;;;;;;6192155;23;20386;-89
2022/06/05 02:00:32;;;;;;;13.10;11.50;;;19.60;99.90;;;;;;6191139;23;20445;-88
2022/06/05 02:03:06;;;;;;;12.23;10.97;;;19.70;99.90;;;;;;6191791;23;20564;-89
2022/06/05 02:05:40;;;;;;;12.43;11.23;;;19.60;99.90;;;;;;6194583;23;20391;-87
2022/06/05 02:08:15;;;;;;;12.60;10.73;;;19.60;99.90;;;;;;6214315;23;20395;-87
2022/06/05 02:10:48;;;;;;;12.73;11.43;;;19.70;99.90;;;;;;6214273;23;20422;-87
2022/06/05 02:13:16;;;;;;;12.50;10.97;;;19.70;99.90;;;;;;6213368;23;20391;-88
2022/06/05 02:15:43;;;;;;;12.60;11.20;;;19.70;99.90;;;;;;6211797;23;20382;-89
2022/06/05 02:18:13;;;;;;;12.10;10.90;;;19.80;99.90;;;;;;6203845;23;20395;-87
2022/06/05 02:20:41;;;;;;;11.83;10.63;;;19.80;99.90;;;;;;6200237;23;20450;-87
2022/06/05 02:23:15;;;;;;;13.27;12.07;;;19.80;99.90;;;;;;6203224;23;20426;-88
2022/06/05 02:25:43;;;;;;;16.20;11.77;;;19.80;99.90;;;;;;6201143;23;20472;-88
2022/06/05 02:28:13;;;;;;;12.80;11.50;;;19.80;99.90;;;;;;6192131;23;20478;-86
2022/06/05 02:30:46;;;;;;;13.03;10.70;;;19.80;99.90;;;;;;6189893;23;20502;-87
2022/06/05 02:33:23;;;;;;;13.20;11.83;;;19.80;99.90;;;;;;6191602;23;20406;-87
2022/06/05 02:36:02;;;;;;;12.00;10.53;;;19.90;99.90;;;;;;6190926;23;20375;-88
2022/06/05 02:38:42;;;;;;;11.83;10.63;;;19.90;99.90;;;;;;6191286;23;20407;-87
2022/06/05 02:41:13;;;;;;;12.23;11.03;;;19.90;99.90;;;;;;6195314;23;20472;-88
2022/06/05 02:46:40;;;;;;;11.10;10.00;;;20.00;99.90;;;;;;6218545;23;20387;-89
2022/06/05 02:49:13;;;;;;;12.77;11.47;;;19.90;99.90;;;;;;6229882;23;20880;-89
2022/06/05 02:51:45;;;;;;;12.07;10.87;;;19.90;99.90;;;;;;6209470;23;20465;-89
2022/06/05 02:54:20;;;;;;;12.53;11.23;;;20.00;99.90;;;;;;6190300;23;20805;-89
2022/06/05 02:56:47;;;;;;;13.10;11.80;;;19.90;99.90;;;;;;6189607;23;20758;-89
2022/06/05 02:59:14;;;;;;;13.10;11.80;;;19.80;99.90;;;;;;6206679;23;20410;-92
2022/06/05 03:04:26;;;;;;;13.30;11.90;;;19.80;99.90;;;;;;6195578;23;20402;-89
2022/06/05 03:06:53;;;;;;;13.13;11.83;;;19.90;99.90;;;;;;6191274;23;20407;-89
2022/06/05 03:09:20;;;;;;;12.93;11.50;;;20.10;99.90;;;;;;6190969;23;20415;-89
2022/06/05 03:11:47;;;;;;;12.67;11.47;;;20.20;99.90;;;;;;6191077;23;20445;-89
2022/06/05 03:14:14;;;;;;;12.60;11.40;;;20.00;99.90;;;;;;6200290;23;20433;-89
2022/06/05 03:16:42;;;;;;;13.03;11.77;;;19.90;99.90;;;;;;6204602;23;20457;-89
2022/06/05 03:19:10;;;;;;;12.67;11.37;;;19.90;99.90;;;;;;6214665;23;20391;-91
2022/06/05 03:21:38;;;;;;;12.50;11.30;;;20.10;99.90;;;;;;6210584;23;20451;-89
2022/06/05 03:24:06;;;;;;;11.60;10.57;;;20.00;99.90;;;;;;6212810;23;20407;-90
2022/06/05 03:26:33;;;;;;;12.30;11.10;;;20.20;99.90;;;;;;6196865;23;20414;-89
2022/06/05 03:29:00;;;;;;;12.80;11.50;;;20.00;99.90;;;;;;6189895;23;20411;-89
2022/06/05 03:31:28;;;;;;;13.67;12.27;;;20.00;99.90;;;;;;6191139;23;20458;-88
2022/06/05 03:33:57;;;;;;;12.50;11.23;;;19.90;99.90;;;;;;6189759;23;20441;-89
2022/06/05 03:36:24;;;;;;;12.60;11.40;;;19.90;99.90;;;;;;6190011;23;20733;-89
2022/06/05 03:38:51;;;;;;;13.23;11.93;;;19.90;99.90;;;;;;6190438;23;20759;-90
2022/06/05 03:41:19;;;;;;;11.77;10.50;;;19.90;99.90;;;;;;6196738;23;20438;-90
2022/06/05 03:43:47;;;;;;;12.73;11.50;;;19.90;99.90;;;;;;6199504;23;20411;-89
2022/06/05 03:46:16;;;;;;;11.77;10.53;;;19.90;99.90;;;;;;6191061;23;20457;-90
2022/06/05 03:48:44;;;;;;;13.07;11.67;;;20.10;99.90;;;;;;6189488;23;20415;-90
2022/06/05 03:51:17;;;;;;;13.27;11.27;;;20.30;99.90;;;;;;6190497;23;20477;-91
2022/06/05 03:53:44;;;;;;;11.43;10.33;;;20.30;99.90;;;;;;6193516;23;20441;-89
2022/06/05 03:56:12;;;;;;;11.47;10.47;;;20.30;99.90;;;;;;6193665;23;20411;-90
2022/06/05 03:58:39;;;;;;;11.93;10.73;;;20.30;99.90;;;;;;6191381;23;20439;-90
2022/06/05 04:01:08;;;;;;;11.70;10.53;;;20.30;99.90;;;;;;6190842;23;20558;-90
2022/06/05 04:03:35;;;;;;;10.70;9.33;;;20.30;99.90;;;;;;6190890;23;20928;-89
2022/06/05 04:06:05;;;;;;;11.67;10.57;;;20.30;99.90;;;;;;6189843;23;20453;-89
2022/06/05 04:08:34;;;;;;;11.73;10.53;;;20.30;99.90;;;;;;6190774;23;20433;-89
2022/06/05 04:11:05;;;;;;;11.40;10.30;;;20.20;99.90;;;;;;6204807;23;20426;-93
2022/06/05 04:13:35;;;;;;;14.07;11.13;;;20.00;99.90;;;;;;6207950;23;20391;-90
2022/06/05 04:16:02;;;;;;;12.77;11.47;;;19.80;99.90;;;;;;6210195;23;20394;-89
2022/06/05 04:18:29;;;;;;;13.40;12.10;;;19.80;99.90;;;;;;6213851;23;20433;-89
2022/06/05 04:20:56;;;;;;;14.70;11.47;;;19.90;99.90;;;;;;6194612;23;20505;-89
2022/06/05 04:23:23;;;;;;;12.67;11.47;;;19.80;99.90;;;;;;6191603;23;20771;-90
2022/06/05 04:25:53;;;;;;;14.30;12.80;;;19.70;99.90;;;;;;6198723;23;20390;-90
2022/06/05 04:28:20;;;;;;;17.70;13.07;;;19.60;99.90;;;;;;6213365;23;20402;-91
2022/06/05 04:30:47;;;;;;;12.90;11.70;;;19.70;99.90;;;;;;6206677;23;20422;-91
2022/06/05 04:33:14;;;;;;;17.53;12.30;;;19.90;99.90;;;;;;6190789;23;20469;-90
2022/06/05 04:35:40;;;;;;;15.80;12.33;;;20.00;99.90;;;;;;6190714;23;20453;-90
2022/06/05 04:38:07;;;;;;;14.20;12.80;;;20.00;99.90;;;;;;6201434;23;20395;-90
2022/06/05 04:40:34;;;;;;;13.93;12.60;;;20.00;99.90;;;;;;6191658;23;20473;-90
2022/06/05 04:43:03;;;;;;;13.33;11.60;;;20.20;99.90;;;;;;6188679;23;20481;-89
2022/06/05 04:45:30;;;;;;;13.60;12.20;;;20.20;99.90;;;;;;6189568;23;20410;-90
2022/06/05 04:47:57;;;;;;;12.90;11.60;;;20.00;99.90;;;;;;6191772;23;20442;-90
2022/06/05 04:50:24;;;;;;;14.03;12.50;;;19.90;99.90;;;;;;6212824;23;20402;-92
2022/06/05 04:52:51;;;;;;;13.70;12.40;;;20.00;99.90;;;;;;6213620;23;20415;-91
2022/06/05 04:55:18;;;;;;;13.63;12.33;;;20.10;99.90;;;;;;6208253;23;20421;-90
2022/06/05 04:57:45;;;;;;;14.00;12.70;;;20.20;99.90;;;;;;6212281;23;20402;-90
2022/06/05 05:00:15;;;;;;;14.63;13.20;;;20.00;99.90;;;;;;6213704;23;20398;-91
2022/06/05 05:02:42;;;;;;;13.53;12.27;;;19.80;99.90;;;;;;6213505;23;20478;-90
2022/06/05 05:05:10;;;;;;;14.63;13.03;;;19.60;99.90;;;;;;6201114;23;20419;-89
2022/06/05 05:07:37;;;;;;;14.37;12.87;;;19.60;99.90;;;;;;6198977;23;20402;-89
2022/06/05 05:10:04;;;;;;;13.83;12.50;;;19.70;99.90;;;;;;6199540;23;20419;-89
2022/06/05 05:12:31;;;;;;;14.43;13.10;;;19.80;99.90;;;;;;6193503;23;20481;-89
2022/06/05 05:14:58;;;;;;;14.30;12.80;;;19.80;99.90;;;;;;6189709;23;20399;-89
2022/06/05 05:17:26;;;;;;;16.20;14.70;;;19.70;99.90;;;;;;6189574;23;20795;-89
2022/06/05 05:19:55;;;;;;;15.60;13.90;;;19.60;99.90;;;;;;6189596;23;20426;-89
2022/06/05 05:22:22;;;;;;;16.10;14.50;;;19.60;99.90;;;;;;6197343;23;20434;-91
2022/06/05 05:24:49;;;;;;;16.33;14.80;;;19.70;99.90;;;;;;6213393;23;20386;-91
2022/06/05 05:27:17;;;;;;;16.00;14.50;;;19.60;99.90;;;;;;6197030;23;20426;-89
2022/06/05 05:29:44;;;;;;;17.27;15.40;;;19.60;99.90;;;;;;6189650;23;20450;-90
2022/06/05 05:32:24;;;;;;;15.47;14.00;;;19.60;99.90;;;;;;6197460;23;20465;-89
2022/06/05 05:34:53;;;;;;;15.97;14.47;;;19.50;99.90;;;;;;6189947;23;20497;-89
2022/06/05 05:37:20;;;;;;;17.20;15.40;;;19.40;99.90;;;;;;6190014;23;20394;-89
2022/06/05 05:42:31;;;;;;;17.40;15.70;;;19.20;99.90;;;;;;6188872;23;20526;-89
2022/06/05 05:45:00;;;;;;;17.93;16.03;;;19.20;99.90;;;;;;6187899;23;20482;-89
2022/06/05 05:47:31;;;;;;;17.40;15.80;;;19.20;99.90;;;;;;6188428;23;20434;-89
2022/06/05 05:50:01;;;;;;;17.40;15.60;;;19.20;99.90;;;;;;6193357;23;20398;-89
2022/06/05 05:52:30;;;;;;;17.70;15.90;;;19.10;99.90;;;;;;6199184;23;20462;-89
2022/06/05 05:54:57;;;;;;;17.20;15.50;;;19.20;99.90;;;;;;6190181;23;20418;-89
2022/06/05 05:57:25;;;;;;;16.60;15.00;;;19.30;99.90;;;;;;6190668;23;20477;-88
2022/06/05 05:59:53;;;;;;;16.70;15.03;;;19.40;99.90;;;;;;6194254;23;20399;-88
2022/06/05 06:02:23;;;;;;;17.27;15.67;;;19.40;99.90;;;;;;6193782;23;20465;-88
2022/06/05 06:04:52;;;;;;;19.63;16.50;;;19.30;99.90;;;;;;6190622;23;20411;-87
2022/06/05 06:07:21;;;;;;;17.90;16.17;;;19.20;99.90;;;;;;6194082;23;20402;-89
2022/06/05 06:09:48;;;;;;;16.87;15.27;;;19.00;99.90;;;;;;6196771;23;20406;-89
2022/06/05 06:12:15;;;;;;;14.87;13.30;;;19.00;99.90;;;;;;6212560;23;20453;-92
2022/06/05 06:14:42;;;;;;;14.97;13.57;;;18.70;99.90;;;;;;6214747;23;20402;-89
2022/06/05 06:17:09;;;;;;;14.13;12.73;;;18.50;99.90;;;;;;6211154;23;20410;-88
2022/06/05 06:19:39;;;;;;;13.27;11.90;;;18.60;99.90;;;;;;6201803;23;20501;-87
2022/06/05 06:22:07;;;;;;;13.27;11.80;;;18.50;99.90;;;;;;6214332;23;20442;-88
2022/06/05 06:24:38;;;;;;;18.00;11.53;;;18.50;99.90;;;;;;6202302;23;20406;-87
2022/06/05 06:27:06;;;;;;;12.60;11.40;;;18.40;99.90;;;;;;6189981;23;20433;-87
2022/06/05 06:29:35;;;;;;;13.90;10.77;;;18.40;99.90;;;;;;6190495;23;20414;-88
2022/06/05 06:32:02;;;;;;;10.60;9.53;;;18.30;99.90;;;;;;6188813;23;20513;-88
2022/06/05 06:34:29;;;;;;;9.00;8.10;;;18.40;99.90;;;;;;6197058;23;20395;-90
2022/06/05 06:36:57;;;;;;;10.60;8.60;;;18.40;99.90;;;;;;6214552;23;20410;-89
2022/06/05 06:39:24;;;;;;;11.00;9.23;;;18.30;99.90;;;;;;6212590;23;20485;-88
2022/06/05 06:41:52;;;;;;;11.20;10.00;;;18.30;99.90;;;;;;6210841;23;20462;-88
2022/06/05 06:44:20;;;;;;;11.87;10.63;;;18.20;99.90;;;;;;6193290;23;20395;-88
2022/06/05 06:46:47;;;;;;;13.67;9.47;;;18.30;99.90;;;;;;6204430;23;20401;-88
2022/06/05 06:49:14;;;;;;;11.20;9.67;;;18.30;99.90;;;;;;6197806;23;20426;-88
2022/06/05 06:51:42;;;;;;;9.90;7.80;;;18.30;99.90;;;;;;6198839;23;20434;-88
2022/06/05 06:54:09;;;;;;;7.90;6.70;;;18.30;99.90;;;;;;6203400;23;20421;-88
2022/06/05 06:56:36;;;;;;;11.30;7.00;;;18.40;99.90;;;;;;6208110;23;20399;-88
2022/06/05 06:59:05;;;;;;;9.20;7.27;;;18.40;99.90;;;;;;6203111;23;20426;-87
2022/06/05 07:01:33;;;;;;;9.57;6.70;;;18.50;99.90;;;;;;6193296;23;20443;-86
2022/06/05 07:04:04;;;;;;;10.43;7.60;;;18.60;99.90;;;;;;6196784;23;20940;-87
2022/06/05 07:06:31;;;;;;;9.90;7.40;;;18.70;99.90;;;;;;6194794;23;20402;-88
2022/06/05 07:08:58;;;;;;;10.30;7.63;;;18.80;99.90;;;;;;6193995;23;20474;-88
2022/06/05 07:11:25;;;;;;;7.70;6.70;;;18.60;99.90;;;;;;6191166;23;20509;-89
2022/06/05 07:13:53;;;;;;;8.20;6.33;;;18.70;99.90;;;;;;6190524;23;20937;-88
2022/06/05 07:16:21;;;;;;;9.17;6.17;;;18.80;99.90;;;;;;6190190;23;20422;-88
2022/06/05 07:18:49;;;;;;;7.57;6.27;;;18.90;99.90;;;;;;6191115;23;20449;-88
2022/06/05 07:21:18;;;;;;;9.93;6.43;;;18.90;99.90;;;;;;6203607;23;20446;-89
2022/06/05 07:23:45;;;;;;;6.07;4.97;;;19.00;99.90;;;;;;6212708;23;20414;-88
2022/06/05 07:26:14;;;;;;;7.47;6.20;;;18.90;99.90;;;;;;6207084;23;20406;-88
2022/06/05 07:28:41;;;;;;;5.80;4.93;;;18.80;99.90;;;;;;6195027;23;20410;-89
2022/06/05 07:31:10;;;;;;;6.87;4.93;;;18.80;99.90;;;;;;6198727;23;20442;-88
2022/06/05 07:33:39;;;;;;;6.10;4.60;;;18.80;99.90;;;;;;6192477;23;20418;-88
2022/06/05 07:36:09;;;;;;;9.10;5.37;;;18.90;99.90;;;;;;6191746;23;20406;-88
2022/06/05 07:38:37;;;;;;;6.70;4.80;;;18.80;99.90;;;;;;6192540;23;20445;-88
2022/06/05 07:41:05;;;;;;;7.43;5.00;;;18.90;99.90;;;;;;6192874;23;20446;-89
2022/06/05 07:43:32;;;;;;;7.70;5.07;;;18.90;99.90;;;;;;6191867;23;20442;-88
2022/06/05 07:46:03;;;;;;;7.17;5.23;;;19.00;99.90;;;;;;6194798;23;20423;-88
2022/06/05 07:48:59;;;;;;;8.13;5.17;;;19.00;99.90;;;;;;6214388;23;20383;-88
2022/06/05 07:54:31;;;;;;;10.93;6.07;;;19.20;99.90;;;;;;6213749;23;20371;-89
2022/06/05 07:57:00;;;;;;;10.20;5.60;;;19.30;99.90;;;;;;6207023;23;20403;-88
2022/06/05 07:59:29;;;;;;;8.47;5.50;;;19.20;99.90;;;;;;6201940;23;20411;-87
2022/06/05 08:01:57;;;;;;;9.30;5.67;;;19.20;99.90;;;;;;6203786;23;20447;-87
2022/06/05 08:04:26;;;;;;;7.00;5.00;;;19.20;99.90;;;;;;6191578;23;20413;-88
2022/06/05 08:06:53;;;;;;;6.30;4.37;;;19.30;99.90;;;;;;6190133;23;20418;-87
2022/06/05 08:09:20;;;;;;;5.70;4.60;;;19.30;99.90;;;;;;6189489;23;20399;-88
2022/06/05 08:11:47;;;;;;;5.53;4.30;;;19.50;99.90;;;;;;6188971;23;20518;-88
2022/06/05 08:14:15;;;;;;;7.03;4.40;;;19.50;99.90;;;;;;6189647;23;20442;-88
2022/06/05 08:16:43;;;;;;;4.90;3.47;;;19.60;99.90;;;;;;6200746;23;20478;-89
2022/06/05 08:19:11;;;;;;;8.30;5.00;;;19.70;99.90;;;;;;6213260;23;20406;-88
2022/06/05 08:22:23;;;;;;;7.53;4.40;;;19.80;99.90;;;;;;6210334;23;20447;-88
2022/06/05 08:24:52;;;;;;;6.90;3.60;;;19.80;99.90;;;;;;6165643;23;20414;-87
2022/06/05 08:27:27;;;;;;;8.03;4.20;;;20.00;99.90;;;;;;6189228;23;20437;-88
2022/06/05 08:29:56;;;;;;;8.60;4.13;;;20.10;99.90;;;;;;6188142;23;20410;-88
2022/06/05 08:32:24;;;;;;;9.93;4.00;;;20.20;99.90;;;;;;6187592;23;20418;-88
2022/06/05 08:34:51;;;;;;;5.87;3.03;;;20.40;99.90;;;;;;6187896;23;20445;-88
2022/06/05 08:43:25;;;;;;;5.30;3.10;;;20.80;99.90;;;;;;6191943;23;20500;-88
2022/06/05 08:46:00;;;;;;;4.87;2.70;;;20.80;99.90;;;;;;6226096;23;20405;-88
2022/06/05 08:48:31;;;;;;;4.87;3.07;;;21.00;99.90;;;;;;6220815;23;20409;-89
2022/06/05 08:51:06;;;;;;;6.00;2.80;;;20.90;99.90;;;;;;6220161;23;20384;-89
2022/06/05 08:53:42;;;;;;;7.00;3.27;;;20.90;99.90;;;;;;6191051;23;20414;-89
2022/06/05 08:56:19;;;;;;;4.93;2.77;;;20.90;99.90;;;;;;6202662;23;20699;-90
2022/06/05 08:58:53;;;;;;;5.70;2.70;;;21.10;99.90;;;;;;6191204;23;20415;-90
2022/06/05 09:01:33;;;;;;;4.97;2.40;;;21.40;99.90;;;;;;6189684;23;20486;-89
2022/06/05 09:04:13;;;;;;;4.10;2.90;;;21.40;99.90;;;;;;6189678;23;20862;-89
2022/06/05 09:06:45;;;;;;;3.90;2.47;;;21.60;99.90;;;;;;6189744;23;20426;-90
2022/06/05 09:09:16;;;;;;;5.00;2.43;;;21.90;99.90;;;;;;6194148;23;20391;-89
2022/06/05 09:11:51;;;;;;;5.87;2.80;;;21.90;99.90;;;;;;6195601;23;20921;-89
2022/06/05 09:14:32;;;;;;;5.77;2.53;;;21.90;99.90;;;;;;6199549;23;20394;-89
2022/06/05 09:17:04;;;;;;;5.20;2.50;;;22.10;99.90;;;;;;6207584;23;20390;-88
2022/06/05 09:19:32;;;;;;;8.70;2.57;;;22.10;99.90;;;;;;6192563;23;20395;-88
2022/06/05 09:22:05;;;;;;;6.90;2.27;;;22.10;99.90;;;;;;6198388;23;20438;-88
2022/06/05 09:24:40;;;;;;;7.50;3.10;;;22.20;99.90;;;;;;6197251;23;20409;-89
2022/06/05 09:27:18;;;;;;;4.77;2.50;;;22.20;99.90;;;;;;6189610;23;20401;-89
2022/06/05 09:29:56;;;;;;;5.30;2.60;;;22.30;99.90;;;;;;6190235;23;20720;-89
2022/06/05 09:32:46;;;;;;;5.23;2.53;;;22.40;99.90;;;;;;6193834;23;20426;-89
2022/06/05 09:35:23;;;;;;;4.60;2.10;;;22.40;99.90;;;;;;6180922;23;20410;-90
2022/06/05 09:37:56;;;;;;;3.90;2.00;;;22.40;99.90;;;;;;6193997;23;20409;-90
2022/06/05 09:40:29;;;;;;;7.83;2.40;;;22.40;99.90;;;;;;6194342;23;20463;-89
2022/06/05 09:43:22;;;;;;;5.10;2.07;;;22.40;99.90;;;;;;6195422;23;20536;-90
2022/06/05 09:46:08;;;;;;;7.67;2.07;;;22.60;99.90;;;;;;6212407;23;20386;-89
2022/06/05 09:48:45;;;;;;;5.73;2.30;;;22.70;99.90;;;;;;6194749;23;20399;-89
2022/06/05 09:51:17;;;;;;;6.20;1.90;;;23.00;99.90;;;;;;6194198;23;20413;-90
2022/06/05 09:53:49;;;;;;;5.47;1.93;;;23.10;99.90;;;;;;6192518;23;20489;-90
2022/06/05 09:56:26;;;;;;;4.70;1.90;;;23.20;99.90;;;;;;6193834;23;20715;-88
2022/06/05 09:59:11;;;;;;;5.17;1.90;;;23.20;99.90;;;;;;6192334;23;20375;-88
2022/06/05 10:01:51;;;;;;;6.93;2.37;;;23.10;99.90;;;;;;6192205;23;20443;-90
2022/06/05 10:04:29;;;;;;;5.20;2.23;;;23.20;99.90;;;;;;6192102;23;20406;-90
2022/06/05 10:07:03;;;;;;;6.53;2.03;;;23.10;99.90;;;;;;6192822;23;20500;-90
2022/06/05 10:09:32;;;;;;;4.80;2.27;;;23.30;99.90;;;;;;6192472;23;20442;-90
2022/06/05 10:12:02;;;;;;;6.67;2.43;;;23.50;99.90;;;;;;6191397;23;20438;-90
2022/06/05 10:14:47;;;;;;;5.70;2.03;;;23.80;99.90;;;;;;6192878;23;20924;-89
2022/06/05 10:17:49;;;;;;;5.40;2.10;;;23.80;99.90;;;;;;6191717;23;20750;-89
2022/06/05 10:20:49;;;;;;;6.47;2.13;;;23.90;99.90;;;;;;6130523;23;20424;-89
2022/06/05 10:23:32;;;;;;;5.20;2.27;;;23.80;99.90;;;;;;6187589;23;20498;-88
2022/06/05 10:26:13;;;;;;;5.23;1.93;;;23.50;99.90;;;;;;6209270;23;20383;-89
2022/06/05 10:28:42;;;;;;;5.07;2.33;;;23.70;99.90;;;;;;6202264;23;20766;-90
2022/06/05 10:31:13;;;;;;;4.40;2.50;;;23.80;99.90;;;;;;6192832;23;20422;-90
2022/06/05 10:33:49;;;;;;;4.50;2.10;;;23.60;99.90;;;;;;6192985;23;20698;-89
2022/06/05 10:36:19;;;;;;;4.90;2.50;;;23.70;99.90;;;;;;6202306;23;20454;-89
2022/06/05 10:38:58;;;;;;;10.67;7.40;;;23.80;99.90;;;;;;6196722;23;20446;-89
2022/06/05 10:41:34;;;;;;;11.00;3.67;;;23.60;99.90;;;;;;6198898;23;20458;-88
2022/06/05 10:44:21;;;;;;;7.70;3.87;;;23.40;99.90;;;;;;6192115;23;20442;-89
2022/06/05 10:47:04;;;;;;;6.27;3.90;;;23.30;99.90;;;;;;6195347;23;20395;-89
2022/06/05 10:49:39;;;;;;;10.00;5.37;;;23.00;99.90;;;;;;6208678;23;20421;-89
2022/06/05 10:52:16;;;;;;;9.63;4.57;;;22.80;99.90;;;;;;6211227;23;20426;-89
2022/06/05 10:54:50;;;;;;;7.83;4.70;;;22.50;99.90;;;;;;6207288;23;20395;-89
2022/06/05 10:57:22;;;;;;;7.43;5.20;;;22.20;99.90;;;;;;6209232;23;20399;-89
2022/06/05 11:00:01;;;;;;;7.50;5.00;;;22.20;99.90;;;;;;6207682;23;20383;-89
2022/06/05 11:03:11;;;;;;;6.63;5.30;;;21.90;99.90;;;;;;6211140;23;20442;-89
2022/06/05 11:06:02;;;;;;;8.50;5.40;;;21.60;99.90;;;;;;6211187;23;20518;-89
2022/06/05 11:08:42;;;;;;;7.73;5.53;;;21.60;99.90;;;;;;6200005;23;20410;-89
2022/06/05 11:14:10;;;;;;;6.33;5.10;;;21.50;99.90;;;;;;6199405;23;20394;-88
2022/06/05 11:16:47;;;;;;;7.57;4.63;;;21.60;99.90;;;;;;6197966;23;20375;-89
2022/06/05 11:19:22;;;;;;;11.90;5.60;;;21.60;99.90;;;;;;6193126;23;20398;-89
2022/06/05 11:21:51;;;;;;;10.70;6.00;;;21.60;99.90;;;;;;6192494;23;20921;-89
2022/06/05 11:24:25;;;;;;;7.30;5.30;;;21.70;99.90;;;;;;6192419;23;20461;-88
2022/06/05 11:27:03;;;;;;;6.77;4.60;;;21.70;99.90;;;;;;6195634;23;20372;-87
2022/06/05 11:29:45;;;;;;;11.27;5.53;;;21.60;99.90;;;;;;6200422;23;20418;-87
2022/06/05 11:32:23;;;;;;;5.63;5.00;;;21.60;99.90;;;;;;6200944;23;20801;-88
2022/06/05 11:34:59;;;;;;;8.53;5.40;;;21.60;99.90;;;;;;6197489;23;20414;-87
2022/06/05 11:37:43;;;;;;;7.87;4.67;;;21.70;99.90;;;;;;6196553;23;20422;-89
2022/06/05 11:40:24;;;;;;;8.90;4.70;;;21.70;99.90;;;;;;6194564;23;20388;-89
2022/06/05 11:43:17;;;;;;;11.17;4.50;;;21.80;99.90;;;;;;6194177;23;20468;-89
2022/06/05 11:45:57;;;;;;;8.90;4.30;;;21.80;99.90;;;;;;6193515;23;20399;-89
2022/06/05 11:48:29;;;;;;;8.13;4.03;;;21.90;99.90;;;;;;6196757;23;20443;-88
2022/06/05 11:51:05;;;;;;;6.43;3.77;;;22.00;99.90;;;;;;6196247;23;20455;-89
2022/06/05 11:53:43;;;;;;;6.60;4.20;;;22.20;99.90;;;;;;6195121;23;20434;-89
2022/06/05 11:56:26;;;;;;;8.27;4.40;;;22.50;99.90;;;;;;6200070;23;20399;-88
2022/06/05 11:59:05;;;;;;;5.70;4.23;;;22.80;99.90;;;;;;6207941;23;20421;-88
2022/06/05 12:01:38;;;;;;;7.00;4.10;;;23.10;99.90;;;;;;6192270;23;20438;-89
2022/06/05 12:04:15;;;;;;;6.20;4.00;;;23.20;99.90;;;;;;6192465;23;20439;-89
2022/06/05 12:06:49;;;;;;;7.23;4.10;;;23.30;99.90;;;;;;6197555;23;20403;-88
2022/06/05 12:09:19;;;;;;;7.30;3.60;;;23.40;99.90;;;;;;6198079;23;20430;-89
2022/06/05 12:11:51;;;;;;;7.50;4.27;;;23.30;99.90;;;;;;6194782;23;20497;-89
2022/06/05 12:14:24;;;;;;;8.83;3.87;;;23.30;99.90;;;;;;6203572;23;20467;-88
2022/06/05 12:16:57;;;;;;;6.37;3.57;;;23.40;99.90;;;;;;6211605;23;20398;-89
2022/06/05 12:19:37;;;;;;;6.20;3.20;;;23.60;99.90;;;;;;6203254;23;20430;-88
2022/06/05 12:22:19;;;;;;;5.60;3.50;;;23.60;99.90;;;;;;6203992;23;20434;-89
2022/06/05 12:24:51;;;;;;;8.23;3.60;;;23.80;99.90;;;;;;6202826;23;20442;-89
2022/06/05 12:27:20;;;;;;;5.70;3.20;;;23.90;99.90;;;;;;6200332;23;20379;-89
2022/06/05 12:29:56;;;;;;;9.33;3.80;;;24.00;99.90;;;;;;6198716;23;20473;-89
2022/06/05 12:32:32;;;;;;;7.40;3.50;;;24.10;99.90;;;;;;6211655;23;20438;-88
2022/06/05 12:35:04;;;;;;;6.90;4.20;;;24.10;99.90;;;;;;6213471;23;20407;-88
2022/06/05 12:37:39;;;;;;;7.73;3.40;;;24.20;99.90;;;;;;6207027;23;20395;-89
2022/06/05 12:40:17;;;;;;;5.10;3.27;;;24.20;99.90;;;;;;6194779;23;20439;-90
2022/06/05 12:42:49;;;;;;;6.80;4.23;;;24.10;99.90;;;;;;6195635;23;20434;-89
2022/06/05 12:45:21;;;;;;;7.00;3.50;;;24.30;99.90;;;;;;6196288;23;20380;-88
2022/06/05 12:48:09;;;;;;;4.90;3.23;;;24.30;99.90;;;;;;6196539;23;20438;-89
2022/06/05 12:50:49;;;;;;;5.63;3.10;;;24.50;99.90;;;;;;6196947;23;20406;-90
2022/06/05 12:53:35;;;;;;;5.90;2.90;;;24.50;99.90;;;;;;6196081;23;20429;-88
2022/06/05 12:56:17;;;;;;;5.77;3.40;;;24.60;99.90;;;;;;6198316;23;20409;-89
2022/06/05 12:58:55;;;;;;;4.90;2.93;;;24.60;99.90;;;;;;6199301;23;20402;-89
2022/06/05 13:01:27;;;;;;;7.67;3.47;;;24.60;99.90;;;;;;6195742;23;20441;-88
2022/06/05 13:03:59;;;;;;;6.90;3.30;;;24.50;99.90;;;;;;6194322;23;20430;-88
2022/06/05 13:06:40;;;;;;;8.57;3.63;;;24.50;99.90;;;;;;6196300;23;20391;-89
2022/06/05 13:09:18;;;;;;;8.83;2.83;;;24.70;99.90;;;;;;6197647;23;20394;-89
2022/06/05 13:11:52;;;;;;;8.60;3.30;;;24.70;99.90;;;;;;6199001;23;20438;-89
2022/06/05 13:14:35;;;;;;;7.60;3.37;;;24.60;99.90;;;;;;6198776;23;20395;-89
2022/06/05 13:17:20;;;;;;;8.97;3.63;;;24.70;99.90;;;;;;6200485;23;20438;-88
2022/06/05 13:19:51;;;;;;;6.33;3.10;;;24.70;99.90;;;;;;6198666;23;20390;-88
2022/06/05 13:22:27;;;;;;;9.20;3.17;;;24.60;99.90;;;;;;6198790;23;20449;-89